| time (UTC) | temp F | wind direction | speed MPH | gust MPH | rain 1hr in | rain 24hr in | rain mn in | humidity % | barometer mb |
| 20260510112026 | 65 | 159 | 2.0 | 6.0 | 0.00 | 0.47 | 0.47 | 77 | 1011.7 |
| 20260510111019 | 66 | 194 | 2.0 | 7.0 | 0.00 | 0.47 | 0.47 | 78 | 1011.5 |
| 20260510110036 | 65 | 132 | 2.0 | 7.0 | 0.00 | 0.47 | 0.47 | 80 | 1011.6 |
| 20260510105030 | 65 | 192 | 1.0 | 4.0 | 0.00 | 0.47 | 0.47 | 81 | 1011.7 |
| 20260510104025 | 66 | 178 | 2.0 | 4.0 | 0.00 | 0.47 | 0.47 | 78 | 1011.9 |
| 20260510103019 | 67 | 170 | 2.0 | 6.0 | 0.00 | 0.47 | 0.47 | 78 | 1011.8 |
| 20260510102034 | 66 | 159 | 2.0 | 8.0 | 0.00 | 0.47 | 0.47 | 80 | 1012.0 |
| 20260510101029 | 64 | 183 | 1.0 | 3.0 | 0.00 | 0.47 | 0.47 | 83 | 1012.1 |
| 20260510100023 | 63 | 137 | 2.0 | 6.0 | 0.00 | 0.47 | 0.47 | 86 | 1012.4 |
| 20260510095018 | 62 | 162 | 1.0 | 6.0 | 0.00 | 0.47 | 0.47 | 89 | 1012.5 |
| 20260510094033 | 61 | 166 | 1.0 | 4.0 | 0.00 | 0.47 | 0.47 | 92 | 1012.7 |
| 20260510093028 | 61 | 113 | 1.0 | 2.0 | 0.00 | 0.47 | 0.47 | 92 | 1012.8 |
| 20260510092021 | 61 | 154 | 1.0 | 3.0 | 0.00 | 0.47 | 0.47 | 92 | 1012.9 |
| 20260510091016 | 62 | 194 | 1.0 | 4.0 | 0.00 | 0.47 | 0.47 | 92 | 1012.8 |
| 20260510090031 | 61 | 187 | 1.0 | 4.0 | 0.00 | 0.47 | 0.47 | 93 | 1012.7 |
| 20260510085045 | 60 | 169 | 1.0 | 3.0 | 0.00 | 0.47 | 0.47 | 92 | 1012.7 |
| 20260510084019 | 60 | 178 | 1.0 | 2.0 | 0.00 | 0.47 | 0.47 | 92 | 1012.8 |
| 20260510083034 | 60 | 194 | 1.0 | 3.0 | 0.00 | 0.47 | 0.47 | 92 | 1012.7 |
| 20260510082028 | 60 | 148 | 1.0 | 3.0 | 0.00 | 0.47 | 0.47 | 91 | 1012.7 |
| 20260510081024 | 60 | 161 | 1.0 | 3.0 | 0.00 | 0.47 | 0.47 | 91 | 1012.8 |
| 20260510080017 | 61 | 157 | 2.0 | 6.0 | 0.00 | 0.47 | 0.47 | 89 | 1012.8 |
| 20260510075032 | 62 | 168 | 2.0 | 4.0 | 0.00 | 0.47 | 0.47 | 87 | 1012.7 |
| 20260510074027 | 61 | 176 | 1.0 | 6.0 | 0.00 | 0.47 | 0.47 | 88 | 1012.7 |
| 20260510073021 | 60 | 180 | 1.0 | 3.0 | 0.00 | 0.47 | 0.47 | 91 | 1012.6 |
| 20260510072016 | 60 | 169 | 1.0 | 4.0 | 0.00 | 0.47 | 0.47 | 92 | 1012.7 |
| 20260510071031 | 59 | 195 | 2.0 | 7.0 | 0.01 | 0.47 | 0.47 | 92 | 1012.6 |
| 20260510070025 | 58 | 179 | 2.0 | 4.0 | 0.01 | 0.47 | 0.47 | 93 | 1012.5 |
| 20260510065019 | 58 | 167 | 2.0 | 6.0 | 0.02 | 0.47 | 0.47 | 95 | 1012.4 |
| 20260510064034 | 57 | 190 | 2.0 | 4.0 | 0.02 | 0.47 | 0.47 | 96 | 1012.6 |
| 20260510063048 | 57 | 186 | 1.0 | 2.0 | 0.02 | 0.47 | 0.47 | 98 | 1012.9 |
| 20260510062022 | 56 | 170 | 1.0 | 4.0 | 0.02 | 0.47 | 0.47 | 99 | 1012.9 |
| 20260510061017 | 56 | 185 | 1.0 | 3.0 | 0.01 | 0.46 | 0.46 | 99 | 1012.9 |
| 20260510060031 | 56 | 156 | 0.0 | 1.0 | 0.01 | 0.46 | 0.46 | 99 | 1013.4 |
| 20260510055025 | 56 | 165 | 1.0 | 2.0 | 0.00 | 0.45 | 0.45 | 99 | 1013.3 |
| 20260510054019 | 56 | 175 | 1.0 | 2.0 | 0.00 | 0.45 | 0.45 | 99 | 1013.4 |
| 20260510053055 | 56 | 187 | 1.0 | 3.0 | 0.00 | 0.45 | 0.45 | 99 | 1013.6 |
| 20260510052054 | 56 | 189 | 0.0 | 1.0 | 0.00 | 0.45 | 0.45 | 99 | 1013.6 |
| 20260510051023 | 56 | 204 | 0.0 | 1.0 | 0.00 | 0.45 | 0.45 | 99 | 1013.9 |
| 20260510050040 | 56 | 320 | 0.0 | 1.0 | 0.00 | 0.45 | 0.45 | 99 | 1014.0 |
| 20260510045032 | 56 | 0.0 | 0.0 | 0.00 | 0.45 | 0.45 | 99 | 1014.1 | |
| 20260510044029 | 56 | 23 | 0.0 | 1.0 | 0.00 | 0.45 | 0.45 | 99 | 1014.2 |
| 20260510043022 | 56 | 4 | 0.0 | 1.0 | 0.00 | 0.45 | 0.45 | 99 | 1014.2 |
| 20260510042037 | 56 | 0.0 | 0.0 | 0.02 | 0.45 | 0.45 | 99 | 1014.0 | |
| 20260510041030 | 56 | 172 | 0.0 | 3.0 | 0.06 | 0.45 | 0.45 | 99 | 1013.7 |
| 20260510040029 | 56 | 188 | 1.0 | 2.0 | 0.09 | 0.45 | 0.45 | 99 | 1013.6 |
| 20260510035019 | 56 | 172 | 0.0 | 4.0 | 0.10 | 0.45 | 0.45 | 99 | 1013.9 |
| 20260510034034 | 56 | 183 | 1.0 | 1.0 | 0.13 | 0.45 | 0.45 | 99 | 1014.0 |
| 20260510033028 | 56 | 194 | 0.0 | 1.0 | 0.20 | 0.45 | 0.45 | 98 | 1014.2 |
| 20260510032022 | 56 | 0.0 | 0.0 | 0.29 | 0.43 | 0.43 | 98 | 1014.7 | |
| 20260510031036 | 56 | 163 | 1.0 | 2.0 | 0.31 | 0.39 | 0.39 | 98 | 1014.8 |
| 20260510030033 | 56 | 196 | 0.0 | 1.0 | 0.30 | 0.36 | 0.36 | 98 | 1014.6 |
| 20260510025024 | 56 | 196 | 0.0 | 1.0 | 0.33 | 0.35 | 0.35 | 97 | 1014.6 |
| 20260510024039 | 56 | 70 | 0.0 | 2.0 | 0.30 | 0.32 | 0.32 | 96 | 1014.9 |
| 20260510023033 | 55 | 3 | 0.0 | 2.0 | 0.23 | 0.25 | 0.25 | 95 | 1015.0 |
| 20260510022028 | 55 | 0.0 | 0.0 | 0.12 | 0.14 | 0.14 | 94 | 1015.3 | |
| 20260510021103 | 56 | 183 | 0.0 | 1.0 | 0.08 | 0.08 | 0.08 | 92 | 1015.0 |
| 20260510020017 | 56 | 156 | 0.0 | 1.0 | 0.06 | 0.06 | 0.06 | 90 | 1015.0 |
| 20260510015031 | 57 | 159 | 1.0 | 3.0 | 0.02 | 0.02 | 0.02 | 88 | 1014.5 |
| 20260510014026 | 57 | 188 | 0.0 | 2.0 | 0.02 | 0.02 | 0.02 | 87 | 1014.0 |
| 20260510013020 | 58 | 173 | 0.0 | 2.0 | 0.02 | 0.02 | 0.02 | 85 | 1013.9 |
| 20260510012035 | 58 | 193 | 1.0 | 6.0 | 0.02 | 0.02 | 0.02 | 85 | 1013.8 |
| 20260510011029 | 57 | 167 | 1.0 | 1.0 | 0.00 | 0.00 | 0.00 | 85 | 1013.8 |
| 20260510010024 | 57 | 177 | 0.0 | 1.0 | 0.00 | 0.00 | 0.00 | 86 | 1013.5 |
| 20260510005019 | 58 | 171 | 0.0 | 1.0 | 0.00 | 0.00 | 0.00 | 84 | 1013.9 |
| 20260510004034 | 59 | 0.0 | 0.0 | 0.00 | 0.00 | 0.00 | 81 | 1014.3 | |
| 20260510003028 | 60 | 346 | 0.0 | 1.0 | 0.00 | 0.00 | 0.00 | 75 | 1014.6 |
| 20260510002023 | 60 | 0.0 | 0.0 | 0.00 | 0.00 | 0.00 | 71 | 1014.9 | |
| 20260510001017 | 61 | 252 | 0.0 | 1.0 | 0.00 | 0.00 | 0.00 | 69 | 1015.2 |
| 20260510000031 | 60 | 167 | 0.0 | 2.0 | 0.00 | 0.00 | 0.00 | 69 | 1015.4 |
| 20260509235025 | 60 | 348 | 0.0 | 1.0 | 0.00 | 0.00 | 0.00 | 70 | 1015.6 |
| 20260509234020 | 60 | 20 | 1.0 | 2.0 | 0.00 | 0.00 | 0.00 | 68 | 1015.7 |
| 20260509233035 | 60 | 21 | 0.0 | 1.0 | 0.00 | 0.00 | 0.00 | 72 | 1015.9 |
| 20260509232030 | 61 | 24 | 0.0 | 1.0 | 0.00 | 0.00 | 0.00 | 70 | 1015.9 |
| 20260509231024 | 62 | 158 | 1.0 | 2.0 | 0.00 | 0.00 | 0.00 | 62 | 1015.8 |
| 20260509230018 | 63 | 158 | 0.0 | 2.0 | 0.00 | 0.00 | 0.00 | 61 | 1015.3 |
| 20260509225055 | 63 | 159 | 2.0 | 6.0 | 0.00 | 0.00 | 0.00 | 61 | 1014.4 |
| 20260509224028 | 63 | 154 | 1.0 | 3.0 | 0.00 | 0.00 | 0.00 | 61 | 1014.6 |
| 20260509223022 | 63 | 172 | 1.0 | 3.0 | 0.00 | 0.00 | 0.00 | 60 | 1014.8 |
| 20260509222019 | 63 | 182 | 1.0 | 3.0 | 0.00 | 0.00 | 0.00 | 60 | 1014.8 |
| 20260509221034 | 62 | 163 | 1.0 | 2.0 | 0.00 | 0.00 | 0.00 | 62 | 1014.6 |
| 20260509220047 | 61 | 175 | 1.0 | 2.0 | 0.00 | 0.00 | 0.00 | 67 | 1014.7 |
| 20260509215041 | 61 | 184 | 0.0 | 2.0 | 0.00 | 0.00 | 0.00 | 69 | 1014.5 |
| 20260509214037 | 60 | 170 | 1.0 | 2.0 | 0.00 | 0.00 | 0.00 | 72 | 1014.3 |
| 20260509213030 | 61 | 169 | 0.0 | 2.0 | 0.00 | 0.00 | 0.00 | 73 | 1014.3 |
| 20260509212025 | 62 | 181 | 0.0 | 1.0 | 0.00 | 0.00 | 0.00 | 71 | 1014.4 |
| 20260509211018 | 63 | 178 | 1.0 | 2.0 | 0.00 | 0.00 | 0.00 | 68 | 1014.0 |
| 20260509210033 | 63 | 181 | 1.0 | 2.0 | 0.00 | 0.00 | 0.00 | 66 | 1013.9 |
| 20260509205027 | 63 | 159 | 1.0 | 3.0 | 0.00 | 0.00 | 0.00 | 66 | 1013.8 |
| 20260509204043 | 61 | 193 | 1.0 | 2.0 | 0.00 | 0.00 | 0.00 | 72 | 1013.4 |
| 20260509203018 | 60 | 182 | 0.0 | 2.0 | 0.00 | 0.00 | 0.00 | 79 | 1014.0 |
| 20260509202031 | 61 | 0.0 | 0.0 | 0.00 | 0.00 | 0.00 | 80 | 1014.6 | |
| 20260509201025 | 61 | 24 | 0.0 | 1.0 | 0.00 | 0.00 | 0.00 | 79 | 1014.9 |
| 20260509200020 | 61 | 21 | 1.0 | 2.0 | 0.00 | 0.00 | 0.00 | 78 | 1015.4 |
| 20260509195035 | 61 | 35 | 0.0 | 1.0 | 0.00 | 0.00 | 0.00 | 76 | 1015.5 |
| 20260509194036 | 61 | 21 | 1.0 | 1.0 | 0.00 | 0.00 | 0.00 | 74 | 1015.2 |
| 20260509193023 | 61 | 0.0 | 0.0 | 0.00 | 0.00 | 0.00 | 72 | 1015.2 | |
| 20260509192058 | 61 | 344 | 0.0 | 1.0 | 0.00 | 0.00 | 0.00 | 71 | 1015.0 |
| 20260509191032 | 61 | 347 | 0.0 | 1.0 | 0.00 | 0.00 | 0.00 | 71 | 1014.6 |
| 20260509190047 | 61 | 11 | 0.0 | 1.0 | 0.00 | 0.00 | 0.00 | 69 | 1014.5 |
| 20260509185021 | 62 | 0.0 | 0.0 | 0.00 | 0.00 | 0.00 | 69 | 1014.4 | |
| 20260509184036 | 62 | 0 | 0.0 | 1.0 | 0.00 | 0.00 | 0.00 | 69 | 1014.3 |
| 20260509183031 | 62 | 3 | 0.0 | 1.0 | 0.00 | 0.00 | 0.00 | 71 | 1014.3 |
| 20260509182047 | 62 | 0.0 | 0.0 | 0.00 | 0.00 | 0.00 | 70 | 1014.1 | |
| 20260509181019 | 63 | 0.0 | 0.0 | 0.00 | 0.00 | 0.00 | 68 | 1014.0 | |
| 20260509180035 | 64 | 0.0 | 0.0 | 0.00 | 0.00 | 0.00 | 66 | 1014.0 | |
| 20260509175028 | 64 | 0.0 | 0.0 | 0.00 | 0.00 | 0.00 | 63 | 1014.2 | |
| 20260509174022 | 64 | 0.0 | 0.0 | 0.00 | 0.00 | 0.00 | 64 | 1014.0 | |
| 20260509173016 | 65 | 62 | 0.0 | 1.0 | 0.00 | 0.00 | 0.00 | 61 | 1014.0 |
| 20260509172032 | 66 | 208 | 1.0 | 2.0 | 0.00 | 0.00 | 0.00 | 58 | 1014.1 |
| 20260509171025 | 66 | 26 | 0.0 | 1.0 | 0.00 | 0.00 | 0.00 | 59 | 1014.4 |
| 20260509170020 | 67 | 21 | 0.0 | 1.0 | 0.00 | 0.00 | 0.00 | 59 | 1014.7 |
| 20260509165034 | 68 | 192 | 1.0 | 3.0 | 0.00 | 0.00 | 0.00 | 56 | 1014.7 |
| 20260509164029 | 69 | 15 | 1.0 | 3.0 | 0.00 | 0.00 | 0.00 | 54 | 1014.5 |
| 20260509163023 | 70 | 200 | 2.0 | 4.0 | 0.00 | 0.00 | 0.00 | 53 | 1014.6 |
| 20260509162017 | 71 | 224 | 1.0 | 3.0 | 0.00 | 0.00 | 0.00 | 54 | 1014.5 |
| 20260509161034 | 70 | 185 | 1.0 | 4.0 | 0.00 | 0.00 | 0.00 | 55 | 1014.4 |
| 20260509160027 | 72 | 199 | 1.0 | 4.0 | 0.00 | 0.00 | 0.00 | 55 | 1014.4 |
| 20260509155021 | 72 | 206 | 1.0 | 4.0 | 0.00 | 0.00 | 0.00 | 53 | 1014.5 |
| 20260509154017 | 72 | 199 | 1.0 | 4.0 | 0.00 | 0.00 | 0.00 | 54 | 1014.6 |
| 20260509153031 | 73 | 201 | 1.0 | 2.0 | 0.00 | 0.00 | 0.00 | 52 | 1014.6 |
| 20260509152025 | 74 | 182 | 1.0 | 1.0 | 0.00 | 0.00 | 0.00 | 51 | 1014.5 |
| 20260509151020 | 74 | 223 | 1.0 | 2.0 | 0.00 | 0.00 | 0.00 | 52 | 1014.5 |
| 20260509150034 | 75 | 207 | 1.0 | 3.0 | 0.00 | 0.00 | 0.00 | 52 | 1014.6 |
| 20260509145049 | 75 | 261 | 1.0 | 3.0 | 0.00 | 0.00 | 0.00 | 51 | 1014.8 |
| 20260509144023 | 74 | 191 | 1.0 | 3.0 | 0.00 | 0.00 | 0.00 | 54 | 1015.0 |
| 20260509143019 | 74 | 205 | 1.0 | 2.0 | 0.00 | 0.00 | 0.00 | 52 | 1015.0 |
| 20260509142035 | 73 | 198 | 1.0 | 3.0 | 0.00 | 0.00 | 0.00 | 52 | 1015.2 |
| 20260509141030 | 73 | 224 | 2.0 | 4.0 | 0.00 | 0.00 | 0.00 | 52 | 1015.4 |
| 20260509140024 | 73 | 204 | 2.0 | 7.0 | 0.00 | 0.00 | 0.00 | 52 | 1015.6 |
| 20260509135018 | 74 | 217 | 1.0 | 3.0 | 0.00 | 0.00 | 0.00 | 55 | 1015.7 |
| 20260509134032 | 74 | 231 | 1.0 | 4.0 | 0.00 | 0.00 | 0.00 | 54 | 1015.8 |
| 20260509133027 | 73 | 187 | 2.0 | 7.0 | 0.00 | 0.00 | 0.00 | 53 | 1015.8 |
| 20260509132022 | 73 | 102 | 1.0 | 4.0 | 0.00 | 0.00 | 0.00 | 55 | 1016.0 |
| 20260509131018 | 74 | 218 | 1.0 | 2.0 | 0.00 | 0.00 | 0.00 | 58 | 1016.0 |
| 20260509130034 | 73 | 206 | 2.0 | 4.0 | 0.00 | 0.00 | 0.00 | 56 | 1016.0 |
| 20260509125026 | 73 | 174 | 2.0 | 7.0 | 0.00 | 0.00 | 0.00 | 56 | 1016.2 |
| 20260509124021 | 71 | 209 | 2.0 | 7.0 | 0.00 | 0.00 | 0.00 | 56 | 1016.1 |
| 20260509123036 | 73 | 243 | 2.0 | 6.0 | 0.00 | 0.01 | 0.00 | 56 | 1016.1 |
| 20260509122051 | 72 | 166 | 2.0 | 6.0 | 0.00 | 0.02 | 0.00 | 53 | 1016.1 |
| 20260509121026 | 72 | 173 | 2.0 | 4.0 | 0.00 | 0.06 | 0.00 | 53 | 1016.1 |
| 20260509120021 | 73 | 175 | 1.0 | 2.0 | 0.00 | 0.18 | 0.00 | 52 | 1016.1 |
| 20260509115036 | 72 | 221 | 3.0 | 6.0 | 0.00 | 0.21 | 0.00 | 52 | 1016.2 |
| 20260509114031 | 73 | 233 | 1.0 | 3.0 | 0.00 | 0.24 | 0.00 | 54 | 1016.1 |
| 20260509113025 | 73 | 182 | 1.0 | 4.0 | 0.00 | 0.28 | 0.00 | 54 | 1016.1 |